Time;durP1;ratioP1;P1;durP2;ratioP2;P2;SDS_P1;SDS_P2;PMS_P1;PMS_P2;Temp;Humidity;BMP_temperature;BMP_pressure;BME280_temperature;BME280_humidity;BME280_pressure;Samples;Min_cycle;Max_cycle;Signal;HPM_P1;HPM_P2
2023/04/16 00:00:52;;;;;;;6.53;3.45;;;23.00;64.20;;;;;;4859682;29;20390;-67
2023/04/16 00:03:18;;;;;;;6.13;3.97;;;23.00;64.30;;;;;;4859663;29;20046;-66
2023/04/16 00:05:44;;;;;;;6.72;3.53;;;22.80;64.20;;;;;;4859574;29;20040;-66
2023/04/16 00:08:10;;;;;;;5.57;3.78;;;23.00;64.30;;;;;;4859740;29;20052;-67
2023/04/16 00:10:36;;;;;;;5.30;3.50;;;23.00;64.40;;;;;;4859584;29;20034;-67
2023/04/16 00:13:02;;;;;;;5.50;3.85;;;22.90;64.40;;;;;;4859401;29;20542;-67
2023/04/16 00:15:29;;;;;;;5.97;4.32;;;22.90;64.40;;;;;;4858179;29;20121;-67
2023/04/16 00:17:55;;;;;;;3.90;3.60;;;22.90;64.30;;;;;;4859633;29;20038;-67
2023/04/16 00:20:21;;;;;;;6.65;3.85;;;22.90;64.30;;;;;;4853919;29;20037;-67
2023/04/16 00:22:47;;;;;;;6.30;4.30;;;23.00;64.30;;;;;;4839683;29;20044;-67
2023/04/16 00:25:13;;;;;;;5.72;4.03;;;23.00;64.30;;;;;;4840978;29;20042;-68
2023/04/16 00:27:39;;;;;;;7.00;4.28;;;23.00;64.10;;;;;;4840796;29;20558;-67
2023/04/16 00:30:06;;;;;;;6.57;4.05;;;22.90;64.10;;;;;;4840970;29;20048;-64
2023/04/16 00:32:32;;;;;;;6.45;4.25;;;23.00;64.20;;;;;;4840642;29;20072;-64
2023/04/16 00:34:59;;;;;;;7.93;4.53;;;22.90;64.20;;;;;;4840423;29;20034;-67
2023/04/16 00:37:25;;;;;;;9.02;4.22;;;22.90;64.20;;;;;;4819834;29;20174;-67
2023/04/16 00:39:51;;;;;;;9.50;5.18;;;22.90;64.20;;;;;;4820121;29;20069;-67
2023/04/16 00:42:17;;;;;;;7.18;4.43;;;22.90;64.20;;;;;;4819899;29;20060;-67
2023/04/16 00:44:43;;;;;;;7.88;4.57;;;22.80;64.10;;;;;;4819392;29;20550;-68
2023/04/16 00:47:09;;;;;;;5.63;3.88;;;22.80;64.10;;;;;;4804513;29;20145;-69
2023/04/16 00:49:36;;;;;;;5.18;4.38;;;22.90;64.30;;;;;;4804802;29;20108;-68
2023/04/16 00:52:02;;;;;;;8.30;4.30;;;22.80;64.30;;;;;;4819592;29;20145;-69
2023/04/16 00:54:30;;;;;;;5.13;4.20;;;22.80;64.50;;;;;;4822055;29;20042;-69
2023/04/16 00:56:58;;;;;;;5.22;4.28;;;22.70;64.40;;;;;;4804434;29;20050;-68
2023/04/16 00:59:25;;;;;;;7.00;4.47;;;22.80;64.40;;;;;;4789453;29;20171;-68
2023/04/16 01:01:51;;;;;;;8.82;4.65;;;22.80;64.30;;;;;;4820146;29;20054;-69
2023/04/16 01:04:17;;;;;;;5.78;4.47;;;22.80;64.20;;;;;;4819682;29;20122;-68
2023/04/16 01:06:43;;;;;;;7.30;4.65;;;22.80;64.20;;;;;;4819741;29;20149;-68
2023/04/16 01:09:12;;;;;;;6.18;4.72;;;22.80;64.20;;;;;;4838381;29;20121;-68
2023/04/16 01:11:38;;;;;;;8.02;4.80;;;22.90;64.30;;;;;;4843135;29;20187;-68
2023/04/16 01:14:04;;;;;;;7.03;4.30;;;22.70;64.20;;;;;;4842911;29;20068;-68
2023/04/16 01:16:31;;;;;;;8.63;4.30;;;22.80;64.20;;;;;;4842978;29;20036;-67
2023/04/16 01:18:57;;;;;;;6.05;4.53;;;22.90;64.30;;;;;;4844192;29;20041;-67
2023/04/16 01:21:24;;;;;;;6.65;3.45;;;22.80;64.10;;;;;;4842000;29;20030;-67
2023/04/16 01:23:50;;;;;;;6.68;4.78;;;22.80;64.10;;;;;;4840645;29;20042;-68
2023/04/16 01:26:16;;;;;;;8.38;4.93;;;22.80;64.20;;;;;;4843875;29;20033;-68
2023/04/16 01:28:42;;;;;;;6.45;5.05;;;22.90;64.30;;;;;;4843970;29;20049;-68
2023/04/16 01:31:08;;;;;;;7.70;4.50;;;22.70;64.20;;;;;;4843836;29;20038;-67
2023/04/16 01:33:43;;;;;;;9.43;4.60;;;22.70;64.20;;;;;;4842446;29;20034;-68
2023/04/16 01:36:10;;;;;;;9.20;4.65;;;22.70;64.20;;;;;;4842611;29;20479;-67
2023/04/16 01:38:37;;;;;;;7.72;4.55;;;22.70;64.20;;;;;;4842758;29;20046;-67
2023/04/16 01:41:03;;;;;;;9.40;4.90;;;22.70;64.20;;;;;;4843881;29;20701;-66
2023/04/16 01:43:29;;;;;;;6.22;4.30;;;22.70;64.50;;;;;;4842484;29;20471;-67
2023/04/16 01:46:19;;;;;;;5.47;4.38;;;22.60;64.40;;;;;;4843858;29;20050;-67
2023/04/16 01:48:45;;;;;;;5.95;4.40;;;22.70;64.40;;;;;;4822701;29;20527;-67
2023/04/16 01:51:12;;;;;;;8.57;4.65;;;22.70;64.40;;;;;;4822736;29;20142;-67
2023/04/16 01:53:38;;;;;;;7.82;4.32;;;22.80;64.40;;;;;;4823005;29;20046;-67
2023/04/16 01:56:05;;;;;;;8.05;4.32;;;22.70;64.40;;;;;;4822832;29;20070;-67
2023/04/16 01:58:32;;;;;;;6.63;3.95;;;22.80;64.40;;;;;;4786430;30;20055;-67
2023/04/16 02:00:59;;;;;;;6.63;3.85;;;22.70;64.40;;;;;;4771823;30;20147;-67
2023/04/16 02:03:25;;;;;;;7.93;3.83;;;22.80;64.30;;;;;;4771302;30;20055;-67
2023/04/16 02:05:52;;;;;;;6.45;3.75;;;22.60;64.10;;;;;;4771604;30;20122;-67
2023/04/16 02:08:18;;;;;;;5.40;3.35;;;22.70;64.20;;;;;;4786414;30;20096;-67
2023/04/16 02:10:47;;;;;;;4.90;3.35;;;22.80;64.20;;;;;;4786919;29;20565;-67
2023/04/16 02:13:14;;;;;;;6.32;3.45;;;22.80;64.20;;;;;;4789028;29;20043;-67
2023/04/16 02:15:47;;;;;;;6.80;3.33;;;22.90;64.20;;;;;;4789321;29;20451;-67
2023/04/16 02:18:14;;;;;;;6.15;3.70;;;22.70;64.10;;;;;;4789160;29;20107;-67
2023/04/16 02:20:42;;;;;;;7.60;4.60;;;22.70;64.20;;;;;;4789082;29;20112;-68
2023/04/16 02:23:09;;;;;;;4.13;3.35;;;22.70;64.10;;;;;;4804101;29;20463;-69
2023/04/16 02:25:42;;;;;;;4.85;3.63;;;22.70;64.20;;;;;;4808765;29;20154;-69
2023/04/16 02:28:12;;;;;;;5.93;3.50;;;22.80;64.20;;;;;;4807182;29;20038;-68
2023/04/16 02:30:41;;;;;;;6.07;3.80;;;22.70;64.30;;;;;;4807100;29;20054;-67
2023/04/16 02:33:09;;;;;;;6.18;3.85;;;22.60;64.20;;;;;;4807080;29;20503;-68
2023/04/16 02:35:38;;;;;;;5.95;3.53;;;22.60;64.30;;;;;;4824011;29;20056;-67
2023/04/16 02:38:06;;;;;;;4.75;3.45;;;22.70;64.20;;;;;;4860025;29;20109;-71
2023/04/16 02:40:34;;;;;;;5.22;3.97;;;22.70;64.10;;;;;;4859826;29;20451;-69
2023/04/16 02:43:00;;;;;;;4.63;3.20;;;22.70;63.90;;;;;;4861183;29;20102;-68
2023/04/16 02:45:26;;;;;;;5.85;3.88;;;22.50;63.70;;;;;;4859811;29;20044;-69
2023/04/16 02:47:52;;;;;;;7.55;3.80;;;22.80;63.80;;;;;;4861234;29;20037;-70
2023/04/16 02:50:18;;;;;;;5.55;3.85;;;22.80;63.80;;;;;;4859979;29;20059;-69
2023/04/16 02:52:45;;;;;;;6.20;3.80;;;22.80;63.70;;;;;;4859039;29;20123;-69
2023/04/16 02:55:11;;;;;;;8.75;4.20;;;22.70;63.50;;;;;;4820616;29;20042;-66
2023/04/16 02:57:37;;;;;;;7.60;3.92;;;22.70;63.30;;;;;;4808738;29;20107;-66
2023/04/16 03:00:04;;;;;;;6.55;3.42;;;22.70;63.30;;;;;;4821725;29;20053;-67
2023/04/16 03:02:30;;;;;;;4.93;3.28;;;22.70;63.20;;;;;;4821540;29;20051;-69
2023/04/16 03:04:56;;;;;;;4.75;3.65;;;22.80;63.10;;;;;;4806134;29;20050;-69
2023/04/16 03:07:22;;;;;;;4.45;3.08;;;22.80;63.20;;;;;;4821093;29;20058;-68
2023/04/16 03:09:48;;;;;;;10.45;3.80;;;22.70;63.40;;;;;;4821776;29;20115;-72
2023/04/16 03:12:14;;;;;;;5.28;3.60;;;22.70;63.20;;;;;;4821481;29;20555;-72
2023/04/16 03:14:40;;;;;;;5.35;3.78;;;22.90;63.00;;;;;;4806337;29;20137;-72
2023/04/16 03:17:06;;;;;;;10.40;4.15;;;22.80;62.80;;;;;;4806258;29;20129;-71
2023/04/16 03:19:32;;;;;;;5.85;3.78;;;22.80;62.70;;;;;;4806417;29;20213;-70
2023/04/16 03:21:58;;;;;;;4.97;3.47;;;22.60;63.00;;;;;;4821553;29;20061;-69
2023/04/16 03:24:25;;;;;;;5.30;3.60;;;22.60;63.10;;;;;;4821432;29;20050;-69
2023/04/16 03:26:51;;;;;;;8.30;4.43;;;22.70;63.30;;;;;;4835332;29;20145;-71
2023/04/16 03:29:19;;;;;;;6.93;3.60;;;22.60;63.20;;;;;;4866286;29;20128;-69
2023/04/16 03:31:45;;;;;;;6.45;4.18;;;22.60;63.20;;;;;;4858475;29;20113;-69
2023/04/16 03:34:11;;;;;;;6.35;4.55;;;22.60;63.10;;;;;;4858671;29;20136;-70
2023/04/16 03:36:39;;;;;;;10.30;4.72;;;22.70;63.20;;;;;;4859117;29;20048;-70
2023/04/16 03:39:05;;;;;;;7.28;3.72;;;22.60;63.00;;;;;;4860200;29;20073;-68
2023/04/16 03:41:32;;;;;;;7.45;4.22;;;22.60;63.00;;;;;;4860034;29;20421;-68
2023/04/16 03:43:58;;;;;;;5.70;4.43;;;22.60;63.00;;;;;;4858798;29;20044;-69
2023/04/16 03:46:24;;;;;;;7.97;4.60;;;22.60;62.90;;;;;;4858457;29;20045;-68
2023/04/16 03:48:50;;;;;;;8.00;4.75;;;22.60;62.70;;;;;;4858791;29;20466;-68
2023/04/16 03:51:16;;;;;;;7.90;4.53;;;22.60;62.70;;;;;;4860334;29;20093;-69
2023/04/16 03:53:42;;;;;;;10.13;4.82;;;22.70;62.70;;;;;;4860111;29;20374;-67
2023/04/16 03:56:08;;;;;;;6.90;4.80;;;22.70;62.80;;;;;;4859646;29;20368;-66
2023/04/16 03:58:34;;;;;;;9.70;5.10;;;22.60;62.60;;;;;;4858688;29;20037;-66
2023/04/16 04:01:00;;;;;;;8.10;5.05;;;22.60;62.70;;;;;;4858634;29;20082;-66
2023/04/16 04:03:26;;;;;;;6.55;4.53;;;22.50;62.80;;;;;;4858854;29;20041;-66
2023/04/16 04:05:54;;;;;;;14.52;6.18;;;22.60;63.00;;;;;;4843097;29;20041;-67
2023/04/16 04:08:26;;;;;;;;;;;22.50;62.80;;;;;;4842286;29;20053;-67
2023/04/16 04:10:53;;;;;;;8.50;4.60;;;22.50;63.20;;;;;;4841765;29;19911;-67
2023/04/16 04:13:21;;;;;;;12.32;5.10;;;22.60;62.90;;;;;;4841851;29;20624;-66
2023/04/16 04:15:48;;;;;;;7.88;4.63;;;22.50;62.60;;;;;;4841815;29;20190;-67
2023/04/16 04:18:14;;;;;;;7.57;4.03;;;22.60;62.20;;;;;;4831972;29;20438;-67
2023/04/16 04:20:44;;;;;;;5.05;3.67;;;22.70;62.10;;;;;;4823592;29;20121;-67
2023/04/16 04:23:13;;;;;;;10.60;5.38;;;22.90;61.90;;;;;;4823601;29;20065;-69
2023/04/16 04:25:40;;;;;;;5.78;4.03;;;22.80;61.50;;;;;;4823591;29;20098;-71
2023/04/16 04:28:06;;;;;;;9.18;4.22;;;22.70;61.50;;;;;;4823326;29;20058;-72
2023/04/16 04:30:34;;;;;;;7.35;4.65;;;22.90;62.20;;;;;;4838729;29;20170;-71
2023/04/16 04:33:00;;;;;;;8.10;5.05;;;23.20;63.60;;;;;;4838645;29;20046;-72
2023/04/16 04:35:26;;;;;;;7.25;4.45;;;23.70;63.30;;;;;;4838724;29;20430;-74
2023/04/16 04:37:52;;;;;;;7.22;5.20;;;23.90;64.60;;;;;;4823575;29;20056;-73
2023/04/16 04:40:20;;;;;;;7.43;4.70;;;24.10;60.10;;;;;;4822062;29;20053;-72
2023/04/16 04:42:46;;;;;;;7.03;5.50;;;24.00;59.40;;;;;;4839792;29;20057;-72
2023/04/16 04:45:12;;;;;;;7.57;4.57;;;24.10;62.60;;;;;;4840867;29;20493;-75
2023/04/16 04:47:39;;;;;;;9.57;5.63;;;24.10;59.20;;;;;;4840155;29;20075;-76
2023/04/16 04:50:06;;;;;;;12.52;5.40;;;24.10;58.20;;;;;;4840974;29;20037;-74
2023/04/16 04:52:33;;;;;;;8.25;5.47;;;24.00;57.60;;;;;;4824553;29;20038;-74
2023/04/16 04:55:00;;;;;;;8.70;5.30;;;23.90;57.40;;;;;;4839623;29;20050;-74
2023/04/16 04:57:26;;;;;;;8.23;5.00;;;23.80;56.80;;;;;;4839507;29;20537;-73
2023/04/16 04:59:54;;;;;;;9.93;5.55;;;23.70;56.30;;;;;;4839769;29;20045;-73
2023/04/16 05:02:20;;;;;;;7.50;4.82;;;23.80;56.10;;;;;;4839431;29;20198;-73
2023/04/16 05:04:46;;;;;;;8.27;5.28;;;23.80;55.70;;;;;;4840719;29;20113;-72
2023/04/16 05:07:12;;;;;;;9.75;5.65;;;23.90;55.50;;;;;;4840487;29;20087;-75
2023/04/16 05:09:38;;;;;;;7.25;5.07;;;23.80;55.10;;;;;;4840701;29;20130;-73
2023/04/16 05:12:04;;;;;;;9.65;5.13;;;23.80;54.90;;;;;;4840822;29;20083;-73
2023/04/16 05:14:30;;;;;;;3.92;2.90;;;23.80;54.50;;;;;;4840699;29;20041;-73
2023/04/16 05:16:56;;;;;;;8.13;4.95;;;23.90;53.90;;;;;;4840627;29;20402;-67
2023/04/16 05:19:22;;;;;;;8.50;4.95;;;23.80;51.60;;;;;;4840498;29;20498;-67
2023/04/16 05:21:48;;;;;;;6.05;4.50;;;23.70;50.80;;;;;;4840551;29;20041;-67
2023/04/16 05:24:14;;;;;;;6.68;5.32;;;23.60;51.00;;;;;;4840495;29;20049;-68
2023/04/16 05:26:40;;;;;;;7.70;5.88;;;23.60;50.90;;;;;;4840463;29;20471;-67
2023/04/16 05:29:07;;;;;;;10.45;6.13;;;23.60;50.10;;;;;;4840511;29;20130;-66
2023/04/16 05:31:33;;;;;;;5.85;4.78;;;23.50;51.80;;;;;;4839388;29;20042;-65
2023/04/16 05:33:59;;;;;;;9.80;6.10;;;23.60;51.30;;;;;;4840472;29;20030;-66
2023/04/16 05:36:25;;;;;;;10.25;5.28;;;23.60;52.50;;;;;;4840435;29;20034;-66
2023/04/16 05:38:51;;;;;;;8.95;5.90;;;23.60;53.90;;;;;;4823863;29;20160;-66
2023/04/16 05:41:17;;;;;;;5.20;4.43;;;23.40;53.30;;;;;;4840129;29;20038;-67
2023/04/16 05:43:43;;;;;;;12.20;5.57;;;23.70;58.30;;;;;;4840218;29;20107;-66
2023/04/16 05:46:09;;;;;;;11.77;6.05;;;23.60;55.90;;;;;;4840271;29;20065;-66
2023/04/16 05:48:35;;;;;;;13.75;6.50;;;23.70;56.70;;;;;;4839050;29;20130;-66
2023/04/16 05:51:01;;;;;;;8.90;5.75;;;23.70;55.90;;;;;;4840321;29;20059;-66
2023/04/16 05:53:27;;;;;;;7.43;5.80;;;23.60;57.50;;;;;;4840371;29;20029;-65
2023/04/16 05:55:53;;;;;;;8.57;6.25;;;23.70;54.70;;;;;;4841600;29;20464;-66
2023/04/16 05:58:19;;;;;;;6.15;3.92;;;23.60;54.10;;;;;;4857098;29;20065;-65
2023/04/16 06:00:45;;;;;;;3.05;1.52;;;23.50;53.60;;;;;;4862010;29;20049;-65
2023/04/16 06:03:11;;;;;;;1.60;1.50;;;23.60;62.90;;;;;;4861779;29;20025;-66
2023/04/16 06:05:37;;;;;;;2.42;1.38;;;23.80;62.80;;;;;;4862068;29;20077;-65
2023/04/16 06:08:03;;;;;;;1.35;1.20;;;23.90;61.10;;;;;;4860004;29;20125;-68
2023/04/16 06:10:30;;;;;;;7.78;5.50;;;23.90;61.20;;;;;;4862445;29;20431;-73
2023/04/16 06:12:56;;;;;;;8.35;5.05;;;23.90;60.50;;;;;;4845406;29;20419;-67
2023/04/16 06:15:22;;;;;;;7.50;4.72;;;24.10;59.90;;;;;;4859022;29;20053;-66
2023/04/16 06:17:49;;;;;;;7.00;4.47;;;24.10;59.50;;;;;;4859265;29;20176;-66
2023/04/16 06:20:15;;;;;;;7.43;4.30;;;24.10;59.20;;;;;;4859410;29;20065;-67
2023/04/16 06:22:41;;;;;;;7.05;4.63;;;24.00;58.90;;;;;;4859221;29;20128;-67
2023/04/16 06:25:08;;;;;;;9.55;5.68;;;24.10;59.10;;;;;;4859104;29;20037;-62
2023/04/16 06:27:34;;;;;;;5.57;3.70;;;24.10;59.10;;;;;;4859152;29;20056;-65
2023/04/16 06:30:00;;;;;;;10.90;6.05;;;24.00;59.70;;;;;;4859216;29;20046;-64
2023/04/16 06:32:26;;;;;;;8.40;4.97;;;24.00;58.70;;;;;;4858863;29;20212;-62
2023/04/16 06:34:52;;;;;;;7.00;5.15;;;24.00;59.30;;;;;;4859040;29;20045;-63
2023/04/16 06:37:18;;;;;;;13.90;6.10;;;24.00;59.60;;;;;;4842215;29;20037;-63
2023/04/16 06:39:44;;;;;;;9.30;5.82;;;24.10;57.60;;;;;;4856161;29;20478;-60
2023/04/16 06:42:10;;;;;;;9.35;5.55;;;24.10;59.40;;;;;;4856074;29;20054;-61
2023/04/16 06:44:37;;;;;;;7.97;4.80;;;24.00;59.10;;;;;;4822642;29;20065;-62
2023/04/16 06:47:03;;;;;;;7.10;4.20;;;24.00;58.80;;;;;;4858094;29;20049;-63
2023/04/16 06:49:29;;;;;;;9.50;4.75;;;24.10;58.50;;;;;;4858592;29;20029;-65
2023/04/16 06:51:56;;;;;;;6.55;4.85;;;24.10;58.40;;;;;;4858301;29;20037;-63
2023/04/16 06:54:22;;;;;;;8.70;5.45;;;24.10;58.20;;;;;;4858729;29;20042;-64
2023/04/16 06:56:48;;;;;;;6.32;4.68;;;24.10;57.90;;;;;;4858674;29;20044;-64
2023/04/16 06:59:14;;;;;;;8.68;4.43;;;24.30;58.00;;;;;;4858604;29;20049;-66
2023/04/16 07:01:40;;;;;;;8.02;4.40;;;24.00;57.80;;;;;;4858746;29;20029;-66
2023/04/16 07:04:06;;;;;;;6.22;4.28;;;24.10;58.00;;;;;;4856814;29;20613;-66
2023/04/16 07:06:33;;;;;;;10.18;4.57;;;24.20;58.10;;;;;;4856787;29;20064;-64
2023/04/16 07:08:59;;;;;;;8.15;4.10;;;24.20;58.20;;;;;;4849629;29;20045;-64
2023/04/16 07:11:26;;;;;;;4.47;4.07;;;24.30;60.60;;;;;;4839716;29;20137;-62
2023/04/16 07:13:52;;;;;;;8.32;4.63;;;24.30;58.80;;;;;;4837541;29;20056;-62
2023/04/16 07:16:18;;;;;;;6.82;4.50;;;24.30;58.30;;;;;;4839591;29;20033;-63
2023/04/16 07:18:44;;;;;;;6.47;4.47;;;24.40;58.20;;;;;;4842457;29;20112;-63
2023/04/16 07:21:10;;;;;;;6.13;4.28;;;24.30;58.30;;;;;;4842106;29;20556;-63
2023/04/16 07:23:36;;;;;;;7.80;4.57;;;24.30;58.30;;;;;;4841861;29;20120;-63
2023/04/16 07:26:02;;;;;;;6.40;4.97;;;24.20;58.20;;;;;;4842034;29;20548;-63
2023/04/16 07:28:30;;;;;;;6.18;5.38;;;24.20;58.30;;;;;;4841821;29;20114;-63
2023/04/16 07:30:56;;;;;;;7.50;4.50;;;24.30;58.30;;;;;;4842036;29;20045;-63
2023/04/16 07:33:23;;;;;;;6.03;4.45;;;24.30;58.40;;;;;;4841953;29;20034;-64
2023/04/16 07:35:50;;;;;;;8.35;3.90;;;24.20;58.60;;;;;;4840603;29;20113;-63
2023/04/16 07:38:16;;;;;;;8.48;5.03;;;24.30;57.90;;;;;;4841833;29;20452;-63
2023/04/16 07:40:42;;;;;;;3.92;2.97;;;24.30;57.90;;;;;;4841732;29;20073;-62
2023/04/16 07:43:08;;;;;;;6.68;3.78;;;24.10;58.90;;;;;;4841935;29;20041;-63
2023/04/16 07:45:34;;;;;;;9.23;3.95;;;24.10;59.10;;;;;;4841901;29;20042;-63
2023/04/16 07:48:00;;;;;;;7.03;3.65;;;24.20;59.20;;;;;;4841536;29;20050;-63
2023/04/16 07:50:27;;;;;;;5.82;3.55;;;24.10;59.00;;;;;;4841280;29;20045;-64
2023/04/16 07:52:53;;;;;;;5.47;3.60;;;24.30;59.10;;;;;;4841564;29;20068;-63
2023/04/16 07:55:19;;;;;;;7.75;4.07;;;24.20;58.70;;;;;;4841520;29;20074;-63
2023/04/16 07:57:45;;;;;;;5.72;3.20;;;24.30;58.60;;;;;;4841453;29;20041;-64
2023/04/16 08:00:11;;;;;;;6.43;3.47;;;24.30;58.20;;;;;;4841227;29;20400;-64
2023/04/16 08:02:41;;;;;;;3.55;3.25;;;24.30;58.10;;;;;;4840056;29;20577;-64
2023/04/16 08:05:08;;;;;;;6.15;4.30;;;24.30;59.70;;;;;;4841063;29;20088;-64
2023/04/16 08:07:34;;;;;;;6.53;3.95;;;24.30;63.00;;;;;;4841126;29;20514;-64
2023/04/16 08:10:00;;;;;;;5.35;4.25;;;24.30;62.90;;;;;;4856938;29;20033;-64
2023/04/16 08:12:26;;;;;;;4.88;3.53;;;24.40;62.40;;;;;;4858148;29;20335;-64
2023/04/16 08:14:52;;;;;;;5.20;4.32;;;24.30;61.90;;;;;;4859892;29;20052;-64
2023/04/16 08:17:18;;;;;;;9.25;3.78;;;24.40;61.80;;;;;;4859293;29;20037;-65
2023/04/16 08:19:44;;;;;;;4.75;4.03;;;24.30;61.90;;;;;;4859280;29;20043;-64
2023/04/16 08:22:13;;;;;;;5.85;3.95;;;24.30;61.90;;;;;;4859467;29;20026;-65
2023/04/16 08:24:39;;;;;;;5.43;4.28;;;24.40;61.80;;;;;;4859505;29;20041;-64
2023/04/16 08:27:06;;;;;;;6.35;3.95;;;24.40;61.00;;;;;;4859207;29;20037;-64
2023/04/16 08:29:32;;;;;;;3.63;3.00;;;24.40;61.90;;;;;;4858016;29;20041;-65
2023/04/16 08:31:58;;;;;;;4.38;3.40;;;24.50;62.10;;;;;;4842007;29;20160;-64
2023/04/16 08:34:25;;;;;;;10.45;4.10;;;24.50;62.20;;;;;;4858285;29;20174;-64
2023/04/16 08:36:51;;;;;;;6.72;3.72;;;24.50;62.20;;;;;;4859398;29;20048;-64
2023/04/16 08:39:17;;;;;;;9.32;5.30;;;24.60;62.10;;;;;;4869602;29;20459;-64
2023/04/16 08:41:45;;;;;;;5.35;4.15;;;24.50;61.90;;;;;;4858996;29;20045;-64
2023/04/16 08:44:27;;;;;;;5.65;4.25;;;24.40;61.30;;;;;;4859479;29;20033;-64
2023/04/16 08:46:57;;;;;;;4.70;3.67;;;24.40;61.40;;;;;;4859155;29;20764;-63
2023/04/16 08:49:25;;;;;;;8.63;4.43;;;24.30;61.20;;;;;;4856301;29;20065;-65
2023/04/16 08:51:53;;;;;;;6.25;4.22;;;24.40;60.10;;;;;;4833810;29;20030;-65
2023/04/16 08:54:59;;;;;;;6.18;3.70;;;24.40;59.00;;;;;;4837812;29;20042;-66
2023/04/16 08:57:46;;;;;;;4.63;4.20;;;24.30;57.70;;;;;;4800989;29;20049;-66
2023/04/16 09:00:13;;;;;;;6.38;4.57;;;24.40;56.20;;;;;;4801159;29;20071;-66
2023/04/16 09:02:39;;;;;;;5.10;4.00;;;24.40;55.60;;;;;;4801412;29;20051;-65
2023/04/16 09:05:07;;;;;;;5.50;3.25;;;24.30;55.20;;;;;;4799838;29;20049;-66
2023/04/16 09:07:33;;;;;;;4.38;3.05;;;24.40;55.30;;;;;;4801353;29;20186;-67
2023/04/16 09:10:03;;;;;;;4.05;3.47;;;24.50;55.10;;;;;;4801487;29;20043;-68
2023/04/16 09:12:30;;;;;;;5.15;4.43;;;24.50;56.10;;;;;;4801700;29;20043;-67
2023/04/16 09:14:58;;;;;;;3.28;2.60;;;24.50;60.90;;;;;;4801591;29;20047;-67
2023/04/16 09:17:25;;;;;;;2.88;2.05;;;24.50;55.80;;;;;;4801727;29;20042;-66
2023/04/16 09:19:51;;;;;;;7.10;5.75;;;24.70;55.70;;;;;;4801372;29;20050;-66
2023/04/16 09:22:17;;;;;;;5.90;5.05;;;25.00;52.90;;;;;;4801738;29;20079;-67
2023/04/16 09:24:43;;;;;;;7.15;5.40;;;24.90;53.00;;;;;;4801764;29;20043;-65
2023/04/16 09:27:10;;;;;;;8.45;4.50;;;24.90;53.30;;;;;;4786573;29;20541;-66
2023/04/16 09:29:39;;;;;;;4.97;3.80;;;25.00;53.30;;;;;;4802333;29;20050;-67
2023/04/16 09:32:06;;;;;;;5.75;5.07;;;25.00;53.20;;;;;;4805279;29;20046;-66
2023/04/16 09:34:34;;;;;;;4.90;4.45;;;25.00;53.50;;;;;;4806268;29;20053;-66
2023/04/16 09:37:16;;;;;;;9.07;7.20;;;24.80;54.00;;;;;;4807477;29;20053;-67
2023/04/16 09:39:55;;;;;;;6.65;5.90;;;24.90;54.10;;;;;;4807357;29;20039;-65
2023/04/16 09:42:30;;;;;;;8.30;6.10;;;24.90;54.20;;;;;;4807292;29;20126;-63
2023/04/16 09:44:57;;;;;;;7.93;6.38;;;24.70;54.00;;;;;;4813188;29;20037;-65
2023/04/16 09:47:25;;;;;;;6.07;4.80;;;24.70;52.30;;;;;;4825272;29;20133;-64
2023/04/16 09:49:51;;;;;;;4.43;4.03;;;24.70;51.70;;;;;;4825137;29;20049;-64
2023/04/16 09:52:22;;;;;;;7.35;4.03;;;24.70;50.90;;;;;;4825543;29;20121;-65
2023/04/16 09:54:52;;;;;;;9.70;4.72;;;24.60;48.80;;;;;;4825169;29;20057;-63
2023/04/16 09:57:21;;;;;;;5.47;4.78;;;24.40;51.80;;;;;;4825337;29;20390;-65
2023/04/16 09:59:51;;;;;;;7.20;4.35;;;24.30;51.80;;;;;;4824851;29;20070;-64
2023/04/16 10:02:17;;;;;;;5.30;4.55;;;24.50;52.00;;;;;;4825163;29;20052;-65
2023/04/16 10:04:48;;;;;;;7.03;5.15;;;24.30;51.00;;;;;;4829633;29;20113;-65
2023/04/16 10:07:14;;;;;;;4.97;4.07;;;24.50;52.30;;;;;;4855623;29;20060;-64
2023/04/16 10:09:40;;;;;;;5.72;4.53;;;24.50;52.60;;;;;;4861530;29;20037;-64
2023/04/16 10:12:07;;;;;;;9.18;5.25;;;24.40;52.90;;;;;;4860362;29;20087;-65
2023/04/16 10:14:33;;;;;;;6.10;5.25;;;24.40;53.50;;;;;;4861940;29;20069;-64
2023/04/16 10:16:59;;;;;;;8.38;4.30;;;24.40;51.20;;;;;;4861680;29;20120;-65
2023/04/16 10:19:30;;;;;;;7.65;5.20;;;24.50;52.60;;;;;;4861601;29;20037;-63
2023/04/16 10:21:57;;;;;;;5.38;4.10;;;24.70;58.10;;;;;;4861615;29;20073;-63
2023/04/16 10:24:24;;;;;;;8.85;4.95;;;24.60;49.40;;;;;;4861633;29;20041;-64
2023/04/16 10:26:54;;;;;;;5.75;4.30;;;24.60;48.80;;;;;;4861607;29;20034;-64
2023/04/16 10:29:21;;;;;;;5.00;3.92;;;24.50;48.70;;;;;;4860306;29;20048;-64
2023/04/16 10:31:49;;;;;;;5.18;3.72;;;24.40;48.70;;;;;;4861550;29;20037;-62
2023/04/16 10:34:16;;;;;;;4.00;3.60;;;24.50;49.80;;;;;;4861365;29;20493;-61
2023/04/16 10:36:46;;;;;;;4.90;3.78;;;24.50;48.00;;;;;;4861380;29;20033;-61
2023/04/16 10:39:19;;;;;;;4.03;3.60;;;24.50;48.40;;;;;;4858140;29;20296;-62
2023/04/16 10:41:45;;;;;;;5.28;3.63;;;24.60;50.60;;;;;;4861093;29;20041;-63
2023/04/16 10:44:11;;;;;;;6.85;4.00;;;24.70;51.70;;;;;;4860091;29;20053;-64
2023/04/16 10:46:42;;;;;;;3.72;2.88;;;24.70;48.10;;;;;;4861194;29;20042;-64
2023/04/16 10:49:12;;;;;;;5.70;3.25;;;24.80;55.20;;;;;;4859695;29;20049;-65
2023/04/16 10:51:38;;;;;;;3.88;3.35;;;24.70;55.60;;;;;;4858502;29;20055;-64
2023/04/16 10:54:07;;;;;;;2.50;1.92;;;24.90;55.70;;;;;;4858345;29;20049;-64
2023/04/16 10:56:34;;;;;;;3.08;2.72;;;24.70;55.70;;;;;;4858669;29;20037;-64
2023/04/16 10:59:04;;;;;;;5.00;3.22;;;24.70;55.90;;;;;;4858178;29;20863;-62
2023/04/16 11:01:35;;;;;;;4.80;2.67;;;24.80;56.10;;;;;;4858392;29;20045;-63
2023/04/16 11:04:24;;;;;;;4.47;3.03;;;24.70;56.00;;;;;;4843967;29;20030;-63
2023/04/16 11:07:04;;;;;;;4.60;2.90;;;24.60;56.10;;;;;;4839890;29;20471;-64
2023/04/16 11:10:05;;;;;;;4.68;2.97;;;24.70;56.20;;;;;;4839872;29;20093;-63
2023/04/16 11:12:37;;;;;;;5.60;3.25;;;24.70;56.20;;;;;;4839968;29;20037;-64
2023/04/16 11:15:09;;;;;;;6.43;3.33;;;24.60;56.40;;;;;;4839755;29;20038;-64
2023/04/16 11:17:51;;;;;;;4.57;3.65;;;24.50;56.40;;;;;;4839363;29;20040;-68
2023/04/16 11:20:22;;;;;;;3.83;3.07;;;24.50;56.40;;;;;;4839692;29;20060;-67
2023/04/16 11:22:49;;;;;;;5.70;3.80;;;24.60;56.50;;;;;;4838165;29;20301;-64
2023/04/16 11:25:23;;;;;;;9.13;3.25;;;24.50;56.50;;;;;;4839731;29;20042;-65
2023/04/16 11:27:50;;;;;;;3.25;2.33;;;24.50;56.60;;;;;;4839334;29;20562;-65
2023/04/16 11:30:16;;;;;;;4.28;2.65;;;24.50;56.60;;;;;;4837649;29;20125;-66
2023/04/16 11:32:43;;;;;;;7.13;4.50;;;24.50;56.70;;;;;;4839207;29;20034;-66
2023/04/16 11:35:14;;;;;;;5.15;3.00;;;24.50;55.90;;;;;;4839513;29;20116;-61
2023/04/16 11:37:44;;;;;;;3.75;2.90;;;24.50;56.80;;;;;;4838963;29;20076;-64
2023/04/16 11:40:11;;;;;;;3.60;2.65;;;24.50;56.90;;;;;;4839363;29;20129;-63
2023/04/16 11:42:42;;;;;;;5.55;3.58;;;24.50;56.80;;;;;;4837494;29;20030;-63
2023/04/16 11:45:10;;;;;;;4.10;2.70;;;24.70;57.00;;;;;;4838748;29;20030;-64
2023/04/16 11:47:50;;;;;;;4.53;2.95;;;24.50;56.80;;;;;;4841515;29;20041;-62
2023/04/16 11:50:22;;;;;;;2.55;2.33;;;24.40;56.90;;;;;;4839044;29;20102;-64
2023/04/16 11:52:50;;;;;;;5.80;4.40;;;24.40;57.20;;;;;;4838690;29;20079;-62
2023/04/16 11:55:17;;;;;;;7.57;3.78;;;24.50;56.40;;;;;;4839316;29;20079;-58
2023/04/16 11:57:44;;;;;;;4.53;2.47;;;24.40;56.40;;;;;;4839332;29;20077;-59
2023/04/16 12:00:12;;;;;;;9.75;4.70;;;24.40;58.10;;;;;;4836293;29;20901;-65
2023/04/16 12:02:41;;;;;;;8.38;3.90;;;24.40;59.50;;;;;;4821018;29;20041;-63
2023/04/16 12:05:30;;;;;;;10.05;4.80;;;24.40;60.60;;;;;;4820539;29;20072;-65
2023/04/16 12:07:58;;;;;;;6.40;3.58;;;24.30;62.00;;;;;;4799522;29;20866;-64
2023/04/16 12:10:25;;;;;;;9.88;3.67;;;24.30;61.50;;;;;;4810730;29;20054;-65
2023/04/16 12:12:52;;;;;;;6.22;3.58;;;24.40;60.10;;;;;;4817431;29;20050;-65
2023/04/16 12:15:18;;;;;;;6.43;3.90;;;24.40;59.80;;;;;;4817814;29;20060;-66
2023/04/16 12:17:44;;;;;;;8.73;3.88;;;24.30;59.30;;;;;;4820345;29;20121;-66
2023/04/16 12:20:14;;;;;;;6.90;4.30;;;24.30;59.20;;;;;;4821371;29;20062;-65
2023/04/16 12:22:45;;;;;;;8.13;4.85;;;24.40;59.00;;;;;;4838416;29;20491;-65
2023/04/16 12:25:14;;;;;;;6.68;4.55;;;24.30;58.90;;;;;;4838463;29;20153;-66
2023/04/16 12:27:45;;;;;;;8.73;5.00;;;24.30;58.80;;;;;;4823322;29;20165;-65
2023/04/16 12:30:12;;;;;;;10.90;6.55;;;24.30;58.60;;;;;;4838374;29;20042;-65
2023/04/16 12:32:44;;;;;;;10.27;6.03;;;24.30;58.10;;;;;;4838329;29;20082;-65
2023/04/16 12:35:11;;;;;;;6.95;5.03;;;24.20;57.10;;;;;;4838327;29;20509;-65
2023/04/16 12:37:37;;;;;;;9.07;6.88;;;24.10;57.40;;;;;;4838363;29;20041;-64
2023/04/16 12:40:04;;;;;;;9.90;7.20;;;24.20;55.70;;;;;;4823386;29;20395;-64
2023/04/16 12:42:34;;;;;;;10.00;6.93;;;24.10;56.80;;;;;;4838056;29;20475;-64
2023/04/16 12:45:05;;;;;;;8.13;5.82;;;24.10;57.10;;;;;;4848792;29;20049;-64
2023/04/16 12:47:32;;;;;;;8.65;6.03;;;24.00;58.40;;;;;;4854728;29;20083;-65